Time;durP1;ratioP1;P1;durP2;ratioP2;P2;SDS_P1;SDS_P2;PMS_P1;PMS_P2;Temp;Humidity;BMP_temperature;BMP_pressure;BME280_temperature;BME280_humidity;BME280_pressure;Samples;Min_cycle;Max_cycle;Signal;HPM_P1;HPM_P2
2021/03/01 00:00:28;;;;;;;10.63;6.20;;;5.60;1.00;;;;;;5096589;28;20198;-68
2021/03/01 00:02:54;;;;;;;12.77;6.90;;;5.60;1.00;;;;;;5096371;28;20556;-68
2021/03/01 00:05:20;;;;;;;8.10;6.05;;;5.70;1.00;;;;;;5096669;28;20179;-69
2021/03/01 00:07:46;;;;;;;16.30;7.37;;;5.70;1.00;;;;;;5096350;28;20187;-68
2021/03/01 00:10:13;;;;;;;9.97;6.53;;;5.70;1.00;;;;;;5096603;28;20404;-70
2021/03/01 00:12:39;;;;;;;9.77;6.20;;;5.80;1.00;;;;;;5096632;28;20278;-68
2021/03/01 00:15:07;;;;;;;11.40;6.22;;;5.80;1.00;;;;;;5096206;28;20241;-70
2021/03/01 00:17:33;;;;;;;9.95;6.30;;;5.60;1.00;;;;;;5096630;28;20175;-69
2021/03/01 00:19:58;;;;;;;11.60;6.68;;;5.50;1.00;;;;;;5096527;28;20171;-69
2021/03/01 00:22:24;;;;;;;13.20;6.10;;;5.70;1.00;;;;;;5095962;28;20551;-69
2021/03/01 00:24:49;;;;;;;10.70;5.50;;;5.80;1.00;;;;;;5096130;28;20164;-69
2021/03/01 00:27:15;;;;;;;9.43;6.10;;;5.80;1.00;;;;;;5096229;28;20170;-68
2021/03/01 00:29:41;;;;;;;10.80;5.93;;;5.70;1.00;;;;;;5096225;28;20186;-68
2021/03/01 00:32:06;;;;;;;13.00;6.60;;;5.70;1.00;;;;;;5096124;28;20243;-69
2021/03/01 00:34:32;;;;;;;9.60;5.87;;;5.70;1.00;;;;;;5095858;28;20207;-69
2021/03/01 00:36:58;;;;;;;9.77;6.63;;;5.50;1.00;;;;;;5095908;28;20648;-69
2021/03/01 00:39:23;;;;;;;11.33;6.17;;;5.40;1.00;;;;;;5095781;28;20233;-69
2021/03/01 00:41:49;;;;;;;10.20;6.90;;;5.00;1.00;;;;;;5095706;28;20188;-69
2021/03/01 00:44:15;;;;;;;11.97;6.30;;;4.80;1.00;;;;;;5094840;28;20523;-69
2021/03/01 00:46:40;;;;;;;8.20;5.87;;;4.70;1.00;;;;;;5096221;28;20524;-69
2021/03/01 00:49:06;;;;;;;7.87;5.73;;;4.60;1.00;;;;;;5095683;28;20591;-69
2021/03/01 00:51:32;;;;;;;9.63;6.17;;;4.70;1.00;;;;;;5095480;28;20187;-69
2021/03/01 00:53:58;;;;;;;10.60;6.25;;;4.60;1.00;;;;;;5095524;28;20191;-69
2021/03/01 00:56:24;;;;;;;12.32;6.65;;;4.60;1.00;;;;;;5096532;28;20195;-69
2021/03/01 00:58:49;;;;;;;11.03;7.17;;;4.60;1.00;;;;;;5095604;28;20506;-69
2021/03/01 01:01:15;;;;;;;10.50;6.20;;;4.40;1.00;;;;;;5095344;28;20187;-69
2021/03/01 01:03:40;;;;;;;10.37;6.00;;;4.80;1.00;;;;;;5095341;28;20167;-69
2021/03/01 01:06:06;;;;;;;11.83;6.07;;;4.90;1.00;;;;;;5095418;28;20179;-69
2021/03/01 01:08:32;;;;;;;8.80;5.53;;;5.00;1.00;;;;;;5095273;28;20270;-69
2021/03/01 01:10:58;;;;;;;9.80;6.27;;;5.00;1.00;;;;;;5095355;28;20206;-68
2021/03/01 01:13:23;;;;;;;14.00;6.13;;;5.00;1.00;;;;;;5095039;28;20496;-69
2021/03/01 01:15:49;;;;;;;13.57;6.53;;;5.00;1.00;;;;;;5095310;28;20172;-68
2021/03/01 01:18:14;;;;;;;10.63;6.47;;;5.00;1.00;;;;;;5095343;28;20196;-69
2021/03/01 01:20:40;;;;;;;7.53;5.10;;;5.10;1.00;;;;;;5095223;28;20517;-68
2021/03/01 01:23:06;;;;;;;8.17;5.37;;;5.10;1.00;;;;;;5095287;28;20224;-69
2021/03/01 01:25:31;;;;;;;9.30;5.93;;;5.20;1.00;;;;;;5095178;28;20640;-69
2021/03/01 01:27:57;;;;;;;11.33;6.83;;;5.20;1.00;;;;;;5094950;28;20168;-69
2021/03/01 01:30:25;;;;;;;9.40;6.27;;;5.10;1.00;;;;;;5093554;28;20175;-69
2021/03/01 01:32:51;;;;;;;10.30;6.03;;;4.90;1.00;;;;;;5094808;28;20179;-69
2021/03/01 01:35:18;;;;;;;10.40;6.50;;;4.90;1.00;;;;;;5094688;28;20195;-69
2021/03/01 01:37:43;;;;;;;8.98;5.43;;;4.60;1.00;;;;;;5094801;28;20398;-69
2021/03/01 01:40:12;;;;;;;9.97;5.97;;;4.60;1.00;;;;;;5094950;28;20171;-69
2021/03/01 01:42:38;;;;;;;10.25;5.85;;;4.50;1.00;;;;;;5094431;28;20184;-69
2021/03/01 01:45:15;;;;;;;7.20;4.97;;;4.50;1.00;;;;;;5094582;28;20171;-68
2021/03/01 01:47:42;;;;;;;10.00;5.97;;;4.50;1.00;;;;;;5094446;28;20565;-69
2021/03/01 01:50:09;;;;;;;9.57;5.63;;;4.30;1.00;;;;;;5094402;28;20203;-69
2021/03/01 01:52:36;;;;;;;11.10;6.30;;;4.20;1.00;;;;;;5094303;28;20200;-69
2021/03/01 01:55:03;;;;;;;9.52;5.25;;;4.20;1.00;;;;;;5094393;28;20689;-69
2021/03/01 01:57:29;;;;;;;10.65;6.50;;;4.10;1.00;;;;;;5094422;28;20221;-69
2021/03/01 01:59:54;;;;;;;9.37;4.83;;;4.00;1.00;;;;;;5094620;28;20206;-69
2021/03/01 02:02:21;;;;;;;12.27;6.57;;;3.90;1.00;;;;;;5094292;28;20552;-68
2021/03/01 02:04:59;;;;;;;10.52;5.82;;;3.90;1.00;;;;;;5094574;28;20686;-69
2021/03/01 02:08:04;;;;;;;7.72;5.90;;;4.00;1.00;;;;;;5094142;28;20192;-68
2021/03/01 02:10:43;;;;;;;7.78;5.40;;;4.00;1.00;;;;;;5094498;28;20578;-68
2021/03/01 02:13:21;;;;;;;7.78;5.97;;;4.00;1.00;;;;;;5094036;28;20292;-69
2021/03/01 02:15:57;;;;;;;7.75;5.57;;;3.90;1.00;;;;;;5093969;28;20190;-69
2021/03/01 02:18:23;;;;;;;7.40;5.45;;;4.00;1.00;;;;;;5093965;28;20167;-69
2021/03/01 02:20:49;;;;;;;9.00;5.30;;;4.10;1.00;;;;;;5094104;28;20697;-69
2021/03/01 02:23:16;;;;;;;10.35;4.53;;;3.90;1.00;;;;;;5094007;28;20167;-69
2021/03/01 02:25:55;;;;;;;9.15;4.97;;;3.70;1.00;;;;;;5094164;28;20178;-69
2021/03/01 02:28:25;;;;;;;10.82;5.55;;;3.70;1.00;;;;;;5094123;28;20159;-69
2021/03/01 02:30:54;;;;;;;10.07;6.20;;;3.70;1.00;;;;;;5093690;28;20170;-69
2021/03/01 02:33:27;;;;;;;5.38;4.10;;;3.70;4.10;;;;;;5093651;28;20171;-68
2021/03/01 02:35:57;;;;;;;9.25;5.18;;;3.70;1.00;;;;;;5093980;28;20186;-69
2021/03/01 02:38:26;;;;;;;12.90;5.78;;;3.80;1.00;;;;;;5093628;28;20174;-69
2021/03/01 02:40:54;;;;;;;6.72;5.28;;;3.80;1.00;;;;;;5093478;28;20250;-68
2021/03/01 02:43:21;;;;;;;9.73;5.78;;;3.80;1.00;;;;;;5093733;28;20172;-69
2021/03/01 02:45:47;;;;;;;11.13;5.80;;;3.90;1.00;;;;;;5093673;28;20172;-69
2021/03/01 02:48:13;;;;;;;7.75;4.57;;;3.70;1.00;;;;;;5093592;28;20229;-69
2021/03/01 02:50:41;;;;;;;8.68;6.78;;;3.80;1.00;;;;;;5093285;28;20197;-69
2021/03/01 02:53:07;;;;;;;9.75;5.15;;;3.70;1.00;;;;;;5093638;28;20178;-69
2021/03/01 02:55:34;;;;;;;9.23;5.60;;;3.70;1.00;;;;;;5093267;28;20199;-68
2021/03/01 02:58:02;;;;;;;10.15;5.68;;;3.60;1.00;;;;;;5093538;28;20164;-69
2021/03/01 03:00:28;;;;;;;13.25;7.07;;;3.60;1.00;;;;;;5093437;28;20171;-69
2021/03/01 03:02:54;;;;;;;5.90;4.40;;;3.40;1.00;;;;;;5093341;28;20236;-69
2021/03/01 03:05:22;;;;;;;9.70;5.30;;;3.40;1.00;;;;;;5093254;28;20167;-69
2021/03/01 03:07:49;;;;;;;13.10;5.63;;;3.40;1.00;;;;;;5092957;28;20206;-69
2021/03/01 03:10:16;;;;;;;10.52;5.35;;;3.40;1.00;;;;;;5094241;28;20182;-69
2021/03/01 03:12:43;;;;;;;9.70;5.60;;;3.40;1.00;;;;;;5093564;28;20187;-68
2021/03/01 03:15:14;;;;;;;10.02;5.88;;;3.30;1.00;;;;;;5093427;28;20199;-68
2021/03/01 03:17:40;;;;;;;8.48;5.38;;;3.40;1.00;;;;;;5093215;28;20667;-68
2021/03/01 03:20:07;;;;;;;9.15;5.72;;;3.50;1.00;;;;;;5093225;28;20168;-69
2021/03/01 03:22:34;;;;;;;9.80;5.85;;;3.70;1.00;;;;;;5093344;28;20191;-68
2021/03/01 03:25:00;;;;;;;7.93;5.90;;;3.70;1.00;;;;;;5092952;28;20171;-68
2021/03/01 03:27:26;;;;;;;8.82;5.50;;;3.70;1.00;;;;;;5092894;28;20181;-68
2021/03/01 03:29:51;;;;;;;9.70;5.17;;;3.50;1.00;;;;;;5092892;28;20175;-69
2021/03/01 03:32:17;;;;;;;8.20;5.37;;;3.30;1.00;;;;;;5093038;28;20663;-68
2021/03/01 03:34:43;;;;;;;7.47;5.37;;;3.30;1.00;;;;;;5093068;28;20234;-68
2021/03/01 03:37:17;;;;;;;12.37;6.03;;;3.30;1.00;;;;;;5093160;28;20177;-68
2021/03/01 03:39:46;;;;;;;8.20;5.20;;;3.40;1.00;;;;;;5093064;28;20389;-68
2021/03/01 03:42:18;;;;;;;9.98;5.75;;;3.30;1.00;;;;;;5093039;28;20187;-68
2021/03/01 03:44:44;;;;;;;10.52;5.93;;;3.40;1.00;;;;;;5092683;28;20718;-68
2021/03/01 03:47:11;;;;;;;11.07;5.67;;;3.40;1.00;;;;;;5092710;28;20197;-68
2021/03/01 03:49:37;;;;;;;10.30;5.07;;;3.40;1.00;;;;;;5092563;28;20664;-69
2021/03/01 03:52:05;;;;;;;8.63;5.18;;;3.40;1.00;;;;;;5092614;28;20183;-68
2021/03/01 03:54:33;;;;;;;8.68;5.38;;;3.60;1.00;;;;;;5092694;28;20202;-68
2021/03/01 03:57:01;;;;;;;8.13;5.10;;;3.50;1.00;;;;;;5092468;28;20171;-68
2021/03/01 03:59:33;;;;;;;7.97;5.03;;;3.50;1.00;;;;;;5092556;28;20209;-68
2021/03/01 04:01:59;;;;;;;8.90;5.30;;;3.40;1.00;;;;;;5092413;28;20337;-68
2021/03/01 04:04:26;;;;;;;7.68;4.90;;;3.50;1.00;;;;;;5092796;28;20305;-68
2021/03/01 04:06:53;;;;;;;10.75;6.15;;;3.40;1.00;;;;;;5092593;28;20174;-68
2021/03/01 04:09:21;;;;;;;9.65;5.32;;;3.30;1.00;;;;;;5092777;28;20589;-68
2021/03/01 04:11:48;;;;;;;11.95;5.60;;;3.40;1.00;;;;;;5092687;28;20196;-68
2021/03/01 04:14:24;;;;;;;7.45;4.68;;;3.30;1.00;;;;;;5092424;28;20274;-68
2021/03/01 04:17:03;;;;;;;9.85;5.35;;;3.30;1.00;;;;;;5092340;28;20180;-68
2021/03/01 04:19:31;;;;;;;9.82;5.20;;;3.10;1.00;;;;;;5093916;28;20265;-68
2021/03/01 04:21:59;;;;;;;5.90;4.80;;;3.00;1.00;;;;;;5096031;28;20233;-68
2021/03/01 04:24:27;;;;;;;12.00;5.53;;;2.80;1.50;;;;;;5096410;28;20539;-69
2021/03/01 04:26:54;;;;;;;9.70;6.40;;;3.00;89.80;;;;;;5096126;28;20508;-69
2021/03/01 04:29:21;;;;;;;13.85;5.30;;;2.80;4.30;;;;;;5096030;28;20228;-68
2021/03/01 04:31:48;;;;;;;8.90;4.90;;;2.60;38.20;;;;;;5095859;28;20214;-69
2021/03/01 04:34:16;;;;;;;9.80;5.72;;;2.70;99.90;;;;;;5096508;28;20532;-68
2021/03/01 04:36:41;;;;;;;11.23;5.68;;;2.80;98.90;;;;;;5095739;28;20548;-69
2021/03/01 04:39:07;;;;;;;9.87;5.33;;;2.90;99.60;;;;;;5095990;28;20167;-68
2021/03/01 04:41:36;;;;;;;25.10;7.03;;;3.10;11.70;;;;;;5095639;28;20196;-68
2021/03/01 04:44:03;;;;;;;9.98;4.82;;;3.00;1.00;;;;;;5095744;28;20170;-68
2021/03/01 04:46:30;;;;;;;7.82;5.45;;;3.00;1.00;;;;;;5095382;28;20184;-68
2021/03/01 04:48:56;;;;;;;11.25;5.18;;;2.90;1.00;;;;;;5095445;28;20199;-69
2021/03/01 04:51:25;;;;;;;26.08;6.55;;;2.90;1.00;;;;;;5095509;28;20602;-69
2021/03/01 04:53:53;;;;;;;16.40;6.93;;;2.60;15.10;;;;;;5095460;28;20195;-68
2021/03/01 04:56:19;;;;;;;8.02;4.75;;;2.60;62.10;;;;;;5095372;28;20160;-69
2021/03/01 04:58:45;;;;;;;14.63;5.30;;;2.80;86.90;;;;;;5095232;28;20164;-68
2021/03/01 05:01:11;;;;;;;9.10;5.10;;;2.70;16.10;;;;;;5095029;28;20455;-69
2021/03/01 05:03:38;;;;;;;10.90;6.30;;;2.60;49.40;;;;;;5095279;28;20168;-69
2021/03/01 05:06:04;;;;;;;8.35;5.40;;;2.80;76.30;;;;;;5095363;28;20167;-69
2021/03/01 05:08:33;;;;;;;10.20;5.80;;;2.70;11.20;;;;;;5095001;28;20271;-69
2021/03/01 05:11:00;;;;;;;10.00;5.40;;;2.70;37.50;;;;;;5094987;28;20241;-69
2021/03/01 05:13:25;;;;;;;32.70;8.27;;;2.80;9.30;;;;;;5094965;28;20251;-68
2021/03/01 05:15:51;;;;;;;54.80;7.60;;;2.80;95.50;;;;;;5095235;28;20587;-69
2021/03/01 05:18:17;;;;;;;14.50;5.23;;;2.70;13.20;;;;;;5094716;28;20401;-69
2021/03/01 05:20:43;;;;;;;58.22;10.00;;;2.90;1.00;;;;;;5095296;28;20207;-68
2021/03/01 05:23:09;;;;;;;93.27;11.10;;;2.60;41.50;;;;;;5095456;28;20164;-68
2021/03/01 05:25:34;;;;;;;35.43;8.30;;;2.60;80.80;;;;;;5094743;28;20667;-68
2021/03/01 05:28:00;;;;;;;21.93;7.03;;;2.60;12.50;;;;;;5095101;28;20520;-69
2021/03/01 05:30:28;;;;;;;73.87;10.57;;;2.60;99.90;;;;;;5094496;28;20536;-69
2021/03/01 05:32:53;;;;;;;59.83;13.50;;;2.60;99.90;;;;;;5094416;28;20417;-69
2021/03/01 05:35:19;;;;;;;94.40;11.43;;;2.60;19.20;;;;;;5094393;28;20202;-69
2021/03/01 05:37:44;;;;;;;23.27;6.83;;;2.50;84.90;;;;;;5094760;28;20645;-69
2021/03/01 05:40:10;;;;;;;43.23;8.07;;;2.70;38.70;;;;;;5094507;28;20251;-69
2021/03/01 05:42:38;;;;;;;68.15;11.27;;;2.50;99.60;;;;;;5094328;28;20233;-69
2021/03/01 05:45:05;;;;;;;13.63;5.30;;;2.50;99.90;;;;;;5094532;28;20168;-69
2021/03/01 05:47:33;;;;;;;21.15;6.13;;;2.30;96.70;;;;;;5094597;28;20288;-69
2021/03/01 05:49:59;;;;;;;10.55;5.22;;;2.20;99.90;;;;;;5094615;28;20509;-69
2021/03/01 05:52:27;;;;;;;60.47;8.25;;;2.10;99.90;;;;;;5093972;28;20195;-69
2021/03/01 05:54:54;;;;;;;15.98;5.68;;;2.60;99.90;;;;;;5094526;28;20271;-68
2021/03/01 05:57:20;;;;;;;21.13;6.13;;;2.50;99.90;;;;;;5094257;28;20221;-68
2021/03/01 05:59:47;;;;;;;10.13;5.53;;;2.30;97.60;;;;;;5094070;28;20583;-69
2021/03/01 06:02:15;;;;;;;14.38;5.40;;;2.40;79.10;;;;;;5094309;28;20188;-69
2021/03/01 06:04:41;;;;;;;46.00;7.35;;;2.50;99.20;;;;;;5094097;28;20602;-69
2021/03/01 06:07:07;;;;;;;26.63;6.77;;;2.50;44.60;;;;;;5094276;28;20214;-68
2021/03/01 06:09:33;;;;;;;33.23;7.03;;;2.30;77.90;;;;;;5094323;28;20722;-68
2021/03/01 06:11:58;;;;;;;33.85;7.30;;;2.40;99.90;;;;;;5094314;28;20605;-68
2021/03/01 06:14:24;;;;;;;22.80;6.03;;;2.30;99.90;;;;;;5093922;28;20199;-69
2021/03/01 06:17:13;;;;;;;14.10;7.20;;;2.30;99.90;;;;;;5094495;28;20763;-69
2021/03/01 06:19:42;;;;;;;17.30;5.82;;;2.20;72.10;;;;;;5094313;28;20175;-70
2021/03/01 06:22:08;;;;;;;12.13;6.07;;;2.30;99.90;;;;;;5094174;28;20191;-68
2021/03/01 06:24:34;;;;;;;12.23;5.40;;;2.30;99.90;;;;;;5093955;28;20174;-68
2021/03/01 06:26:59;;;;;;;19.73;5.63;;;2.30;99.90;;;;;;5093768;28;20171;-69
2021/03/01 06:29:25;;;;;;;9.80;5.00;;;2.50;99.90;;;;;;5093584;28;20175;-68
2021/03/01 06:31:50;;;;;;;10.97;5.67;;;2.60;99.90;;;;;;5093993;28;20583;-68
2021/03/01 06:34:20;;;;;;;15.13;6.37;;;2.60;19.90;;;;;;5093438;28;20199;-70
2021/03/01 06:37:02;;;;;;;11.93;5.65;;;2.70;21.80;;;;;;5093514;28;20164;-69
2021/03/01 06:39:52;;;;;;;12.68;6.13;;;2.60;22.60;;;;;;5093736;28;20232;-69
2021/03/01 06:42:18;;;;;;;45.55;8.45;;;2.70;99.20;;;;;;5092183;28;20290;-69
2021/03/01 06:44:45;;;;;;;15.20;6.40;;;2.60;1.00;;;;;;5093235;28;20222;-68
2021/03/01 06:47:11;;;;;;;23.00;6.35;;;2.60;99.90;;;;;;5093235;28;20167;-67
2021/03/01 06:49:39;;;;;;;15.55;6.05;;;2.50;99.90;;;;;;5093308;28;20167;-69
2021/03/01 06:52:05;;;;;;;13.63;5.78;;;2.60;99.90;;;;;;5093172;28;20263;-69
2021/03/01 06:54:31;;;;;;;9.60;5.30;;;2.60;99.90;;;;;;5093175;28;20203;-69
2021/03/01 06:56:56;;;;;;;12.93;5.83;;;2.60;99.90;;;;;;5093046;28;20163;-69
2021/03/01 06:59:23;;;;;;;10.50;7.23;;;2.60;99.90;;;;;;5093047;28;20175;-69
2021/03/01 07:01:54;;;;;;;17.10;6.63;;;2.60;99.90;;;;;;5093136;28;20196;-69
2021/03/01 07:04:21;;;;;;;17.52;7.30;;;2.70;99.90;;;;;;5092582;28;20175;-67
2021/03/01 07:06:48;;;;;;;17.02;7.20;;;2.80;99.90;;;;;;5093194;28;20179;-69
2021/03/01 07:09:15;;;;;;;11.23;6.00;;;2.80;99.90;;;;;;5093233;28;20202;-69
2021/03/01 07:11:42;;;;;;;10.18;5.78;;;2.80;99.90;;;;;;5093144;28;20563;-69
2021/03/01 07:14:12;;;;;;;12.77;5.85;;;2.90;99.90;;;;;;5092831;28;20207;-69
2021/03/01 07:16:50;;;;;;;22.08;7.10;;;2.90;99.90;;;;;;5092954;28;20521;-69
2021/03/01 07:19:26;;;;;;;15.02;6.00;;;3.10;99.90;;;;;;5093218;28;20148;-70
2021/03/01 07:22:04;;;;;;;17.17;6.28;;;3.10;72.20;;;;;;5092630;28;20277;-69
2021/03/01 07:24:31;;;;;;;41.28;7.63;;;3.10;99.90;;;;;;5093050;28;20178;-69
2021/03/01 07:26:59;;;;;;;16.92;6.10;;;3.40;23.90;;;;;;5092839;28;20159;-69
2021/03/01 07:29:29;;;;;;;23.80;6.47;;;3.40;6.80;;;;;;5092711;28;20171;-69
2021/03/01 07:32:04;;;;;;;37.03;8.30;;;3.60;1.00;;;;;;5092817;28;20300;-69
2021/03/01 07:34:30;;;;;;;34.40;7.90;;;4.00;1.00;;;;;;5092797;28;20195;-68
2021/03/01 07:36:58;;;;;;;84.40;11.98;;;4.00;1.00;;;;;;5092993;28;20693;-67
2021/03/01 07:39:24;;;;;;;60.80;10.82;;;4.10;1.00;;;;;;5092482;28;20163;-68
2021/03/01 07:41:51;;;;;;;21.35;6.85;;;4.40;1.00;;;;;;5092441;28;20582;-67
2021/03/01 07:44:22;;;;;;;19.15;7.30;;;4.30;1.00;;;;;;5092805;28;20171;-69
2021/03/01 07:46:48;;;;;;;35.17;8.85;;;4.10;1.00;;;;;;5093133;28;20629;-69
2021/03/01 07:49:36;;;;;;;512.83;48.50;;;4.10;1.00;;;;;;5092786;28;20250;-69
2021/03/01 07:52:01;;;;;;;36.05;13.82;;;4.40;1.00;;;;;;5092779;28;20399;-69
2021/03/01 07:54:51;;;;;;;48.27;12.00;;;4.60;1.00;;;;;;5095713;28;20672;-68
2021/03/01 07:57:18;;;;;;;42.13;11.57;;;4.80;1.00;;;;;;5096702;28;20255;-68
2021/03/01 07:59:44;;;;;;;50.38;11.00;;;4.90;1.00;;;;;;5096449;28;20449;-68
2021/03/01 08:02:31;;;;;;;43.72;10.18;;;5.50;1.00;;;;;;5096356;28;20219;-69
2021/03/01 08:04:58;;;;;;;46.83;9.50;;;5.70;1.00;;;;;;5096329;28;20191;-68
2021/03/01 08:07:43;;;;;;;60.50;12.20;;;5.70;1.00;;;;;;5096630;28;20674;-68
2021/03/01 08:10:11;;;;;;;29.02;8.38;;;5.80;1.00;;;;;;5096297;28;20710;-68
2021/03/01 08:12:38;;;;;;;33.33;9.55;;;6.10;1.00;;;;;;5096665;28;20195;-68
2021/03/01 08:15:08;;;;;;;97.68;15.82;;;6.10;1.00;;;;;;5096065;28;20290;-69
2021/03/01 08:17:38;;;;;;;58.38;11.85;;;6.50;1.00;;;;;;5096242;28;20217;-69
2021/03/01 08:20:12;;;;;;;25.75;7.90;;;6.80;1.00;;;;;;5096373;28;20188;-69
2021/03/01 08:23:07;;;;;;;117.93;17.25;;;7.00;1.00;;;;;;5095958;28;20244;-69
2021/03/01 08:28:15;;;;;;;55.83;9.95;;;7.10;1.00;;;;;;5096419;28;20253;-69
2021/03/01 08:30:42;;;;;;;80.87;12.30;;;7.40;1.00;;;;;;5096042;28;20177;-69
2021/03/01 08:33:10;;;;;;;21.45;8.50;;;7.50;1.00;;;;;;5095727;28;20187;-68
2021/03/01 08:35:35;;;;;;;24.13;7.50;;;7.30;1.00;;;;;;5095718;28;20278;-69
2021/03/01 08:38:02;;;;;;;226.40;24.67;;;7.10;1.00;;;;;;5095733;28;20243;-69
2021/03/01 08:40:27;;;;;;;18.48;7.70;;;7.60;1.00;;;;;;5095821;28;20250;-69
2021/03/01 08:42:59;;;;;;;54.77;9.80;;;7.80;1.00;;;;;;5095971;28;20714;-69
2021/03/01 08:45:43;;;;;;;17.77;6.80;;;8.00;1.00;;;;;;5095731;28;20241;-69
2021/03/01 08:48:18;;;;;;;40.90;10.15;;;8.20;1.00;;;;;;5095799;28;20184;-69
2021/03/01 08:50:44;;;;;;;12.80;7.03;;;8.30;1.00;;;;;;5095419;28;20569;-69
2021/03/01 08:53:12;;;;;;;54.05;11.55;;;8.20;1.00;;;;;;5095504;28;20205;-68
2021/03/01 08:55:39;;;;;;;102.40;15.77;;;8.30;1.00;;;;;;5095674;28;20195;-69
2021/03/01 08:58:08;;;;;;;132.32;16.23;;;8.20;1.00;;;;;;5095668;28;20171;-70
2021/03/01 09:00:36;;;;;;;49.15;10.77;;;8.70;1.00;;;;;;5095024;28;20674;-68
2021/03/01 09:03:21;;;;;;;70.33;11.43;;;8.80;1.00;;;;;;5093950;28;20574;-68
2021/03/01 09:05:49;;;;;;;14.65;7.65;;;8.70;1.00;;;;;;5094484;28;20481;-69
2021/03/01 09:08:23;;;;;;;26.45;8.20;;;8.40;1.00;;;;;;5095011;28;20642;-69
2021/03/01 09:10:49;;;;;;;19.90;7.93;;;8.70;1.00;;;;;;5095530;28;20483;-69
2021/03/01 09:13:18;;;;;;;62.27;11.73;;;9.20;1.00;;;;;;5095087;28;20480;-70
2021/03/01 09:15:44;;;;;;;65.43;10.87;;;9.60;1.00;;;;;;5095237;28;20188;-69
2021/03/01 09:18:10;;;;;;;90.77;13.73;;;9.70;1.00;;;;;;5093669;28;20538;-68
2021/03/01 09:20:45;;;;;;;43.70;9.60;;;9.50;1.00;;;;;;5095505;28;20399;-71
2021/03/01 09:23:11;;;;;;;53.57;13.47;;;9.40;1.00;;;;;;5095256;28;20438;-69
2021/03/01 09:25:37;;;;;;;9.17;6.37;;;9.70;1.00;;;;;;5094805;28;20456;-68
2021/03/01 09:28:05;;;;;;;43.23;10.53;;;9.90;99.90;;;;;;5095530;28;20405;-67
2021/03/01 09:30:30;;;;;;;11.83;6.57;;;10.10;99.90;;;;;;5100096;28;20186;-68
2021/03/01 09:33:05;;;;;;;13.03;6.57;;;10.20;99.90;;;;;;5099219;28;20425;-70
2021/03/01 09:35:33;;;;;;;24.97;7.67;;;10.40;99.90;;;;;;5099391;28;20445;-69
2021/03/01 09:38:03;;;;;;;18.17;6.60;;;10.60;99.90;;;;;;5099193;28;20758;-69
2021/03/01 09:40:29;;;;;;;26.10;8.13;;;10.60;99.90;;;;;;5100008;28;20450;-69
2021/03/01 09:43:04;;;;;;;40.77;10.00;;;11.00;99.90;;;;;;5101222;28;20429;-69
2021/03/01 09:45:35;;;;;;;45.23;9.93;;;10.90;99.90;;;;;;5097574;28;20386;-69
2021/03/01 09:48:04;;;;;;;28.53;6.97;;;10.90;99.90;;;;;;5094501;28;20427;-69
2021/03/01 09:50:30;;;;;;;32.63;8.27;;;11.20;99.90;;;;;;5094686;28;20429;-69
2021/03/01 09:52:56;;;;;;;46.40;9.80;;;11.00;99.90;;;;;;5094270;28;20436;-70
2021/03/01 09:55:22;;;;;;;107.80;13.93;;;11.00;99.90;;;;;;5094083;28;20445;-69
2021/03/01 09:57:50;;;;;;;8.77;6.07;;;11.30;99.90;;;;;;5094456;28;20755;-69
2021/03/01 10:00:24;;;;;;;17.37;6.77;;;11.70;99.90;;;;;;5094445;28;20405;-69
2021/03/01 10:03:01;;;;;;;18.10;6.43;;;12.10;99.90;;;;;;5094376;28;20989;-70
2021/03/01 10:05:29;;;;;;;12.77;6.03;;;11.80;99.90;;;;;;5094482;28;20412;-69
2021/03/01 10:07:59;;;;;;;41.83;9.50;;;11.90;99.90;;;;;;5093356;28;20977;-69
2021/03/01 10:10:33;;;;;;;29.77;9.50;;;11.90;99.90;;;;;;5094174;28;20503;-68
2021/03/01 10:12:59;;;;;;;38.97;7.50;;;12.80;99.90;;;;;;5093747;28;20914;-69
2021/03/01 10:15:25;;;;;;;23.13;16.03;;;12.70;99.90;;;;;;5094065;28;20465;-69
2021/03/01 10:18:08;;;;;;;13.63;8.73;;;12.90;99.90;;;;;;5093965;28;20438;-69
2021/03/01 10:20:45;;;;;;;36.83;8.33;;;13.00;99.90;;;;;;5093681;28;20407;-69
2021/03/01 10:23:11;;;;;;;16.93;6.80;;;13.30;99.90;;;;;;5094274;28;20786;-69
2021/03/01 10:25:41;;;;;;;15.20;6.60;;;13.70;99.90;;;;;;5093799;28;20417;-69
2021/03/01 10:28:29;;;;;;;19.77;5.70;;;14.00;99.90;;;;;;5094129;28;20168;-69
2021/03/01 10:31:11;;;;;;;20.00;6.00;;;14.10;99.90;;;;;;5093900;28;20957;-69
2021/03/01 10:33:57;;;;;;;10.40;6.70;;;14.20;99.90;;;;;;5093654;28;20400;-69
2021/03/01 10:36:29;;;;;;;7.67;5.67;;;14.40;99.90;;;;;;5093670;28;20891;-68
2021/03/01 10:39:08;;;;;;;10.20;6.07;;;14.60;99.90;;;;;;5093917;28;20854;-69
2021/03/01 10:41:42;;;;;;;19.97;7.07;;;14.60;99.90;;;;;;5093792;28;20458;-70
2021/03/01 10:44:08;;;;;;;10.20;6.23;;;14.40;99.90;;;;;;5093867;28;20736;-68
2021/03/01 10:46:36;;;;;;;22.70;6.57;;;14.60;99.90;;;;;;5093716;28;20818;-67
2021/03/01 10:49:13;;;;;;;9.70;5.40;;;14.30;99.90;;;;;;5093572;28;20407;-68
2021/03/01 10:51:38;;;;;;;65.20;11.43;;;14.60;99.90;;;;;;5093489;28;20514;-73
2021/03/01 10:54:04;;;;;;;12.30;6.23;;;14.60;99.90;;;;;;5093300;28;20533;-69
2021/03/01 10:56:29;;;;;;;12.57;6.23;;;15.40;99.90;;;;;;5092953;28;20175;-69
2021/03/01 10:58:55;;;;;;;26.77;6.20;;;15.60;99.90;;;;;;5093121;28;20174;-69
2021/03/01 11:01:20;;;;;;;41.20;7.30;;;15.70;99.90;;;;;;5093279;28;20273;-68
2021/03/01 11:03:46;;;;;;;28.73;9.20;;;15.80;99.90;;;;;;5093254;28;20160;-69
2021/03/01 11:06:12;;;;;;;66.83;13.40;;;15.50;99.90;;;;;;5093073;28;20632;-70
2021/03/01 11:08:37;;;;;;;16.10;8.97;;;15.20;99.90;;;;;;5093231;28;20196;-69
2021/03/01 11:11:03;;;;;;;12.30;7.50;;;15.60;99.90;;;;;;5093299;28;20202;-70
2021/03/01 11:13:28;;;;;;;13.80;5.80;;;15.90;99.90;;;;;;5092922;28;20259;-67
2021/03/01 11:15:54;;;;;;;13.00;6.03;;;16.10;99.90;;;;;;5092894;28;20213;-69
2021/03/01 11:18:19;;;;;;;27.10;6.80;;;15.90;99.90;;;;;;5093034;28;20159;-69
2021/03/01 11:20:45;;;;;;;22.53;6.80;;;16.00;99.90;;;;;;5094584;28;20172;-69
2021/03/01 11:23:10;;;;;;;9.93;5.87;;;16.50;99.90;;;;;;5093607;28;20625;-69
2021/03/01 11:25:36;;;;;;;7.43;5.30;;;16.80;99.90;;;;;;5093596;28;20247;-68
2021/03/01 11:28:02;;;;;;;26.30;7.80;;;17.20;99.90;;;;;;5092804;28;20172;-69
2021/03/01 11:30:28;;;;;;;19.90;5.67;;;17.10;99.90;;;;;;5093089;28;20172;-69
2021/03/01 11:32:54;;;;;;;7.27;5.33;;;16.40;99.90;;;;;;5093174;28;20195;-69
2021/03/01 11:35:20;;;;;;;200.50;30.80;;;17.00;99.90;;;;;;5093003;28;20921;-70
2021/03/01 11:37:45;;;;;;;13.07;6.80;;;17.30;99.90;;;;;;5093389;28;20168;-69
2021/03/01 11:40:11;;;;;;;89.70;15.20;;;17.70;99.90;;;;;;5092969;28;20279;-69
2021/03/01 11:42:38;;;;;;;9.80;5.20;;;18.00;99.90;;;;;;5092755;28;20186;-69
2021/03/01 11:45:04;;;;;;;370.80;37.50;;;18.10;99.90;;;;;;5093183;28;20412;-69
2021/03/01 11:47:30;;;;;;;225.00;26.53;;;17.60;99.90;;;;;;5092278;28;20566;-69
2021/03/01 11:49:56;;;;;;;12.47;5.50;;;17.70;99.90;;;;;;5092327;28;20916;-68
2021/03/01 11:52:22;;;;;;;983.87;141.43;;;18.20;99.90;;;;;;5092323;28;20512;-68
2021/03/01 11:54:47;;;;;;;74.63;12.03;;;18.40;99.90;;;;;;5092769;28;20195;-68
2021/03/01 11:57:13;;;;;;;102.57;14.70;;;18.20;99.90;;;;;;5092153;28;20551;-69
2021/03/01 11:59:38;;;;;;;257.87;28.03;;;18.10;99.90;;;;;;5092597;28;20171;-69
2021/03/01 12:02:04;;;;;;;18.87;6.50;;;18.60;99.90;;;;;;5092174;28;20509;-69
2021/03/01 12:04:29;;;;;;;55.50;10.43;;;18.10;99.90;;;;;;5092234;28;20250;-67
2021/03/01 12:06:55;;;;;;;25.63;6.93;;;18.40;99.90;;;;;;5092211;28;20587;-68
2021/03/01 12:09:21;;;;;;;6.97;4.70;;;18.50;99.90;;;;;;5092632;28;20164;-69
2021/03/01 12:11:46;;;;;;;9.40;5.63;;;19.10;99.90;;;;;;5091952;28;20231;-68
2021/03/01 12:14:12;;;;;;;13.97;5.20;;;19.40;99.90;;;;;;5092460;28;20220;-68
2021/03/01 12:16:38;;;;;;;8.43;3.50;;;19.60;99.90;;;;;;5092344;28;20577;-68
2021/03/01 12:19:03;;;;;;;11.53;5.47;;;19.20;99.90;;;;;;5092619;28;20663;-69
2021/03/01 12:21:29;;;;;;;7.10;3.70;;;19.70;99.90;;;;;;5092208;28;20452;-69
2021/03/01 12:23:54;;;;;;;9.40;4.93;;;20.10;99.90;;;;;;5092286;28;20219;-70
2021/03/01 12:26:20;;;;;;;153.10;19.93;;;19.30;99.90;;;;;;5092949;28;20168;-68
2021/03/01 12:28:45;;;;;;;10.70;3.57;;;19.20;99.90;;;;;;5092987;28;20178;-67
2021/03/01 12:31:11;;;;;;;10.83;3.60;;;20.00;99.90;;;;;;5092145;28;20182;-68
2021/03/01 12:33:36;;;;;;;5.87;3.37;;;20.10;99.90;;;;;;5092238;28;20540;-68
2021/03/01 12:36:02;;;;;;;7.67;3.30;;;20.40;99.90;;;;;;5091799;28;20206;-69
2021/03/01 12:38:28;;;;;;;11.33;3.63;;;20.30;99.90;;;;;;5092074;28;20167;-68
2021/03/01 12:40:53;;;;;;;14.43;3.60;;;20.40;99.90;;;;;;5093910;28;20576;-69
2021/03/01 12:43:19;;;;;;;11.03;3.27;;;20.00;99.90;;;;;;5095904;28;20202;-68
2021/03/01 12:45:45;;;;;;;11.83;3.63;;;20.40;99.90;;;;;;5094238;28;20286;-69
2021/03/01 12:48:10;;;;;;;34.77;7.00;;;20.30;99.90;;;;;;5095621;28;20655;-69
2021/03/01 12:50:36;;;;;;;3.60;2.77;;;20.60;99.90;;;;;;5095558;28;20251;-68
2021/03/01 12:53:02;;;;;;;5.80;3.37;;;21.00;99.90;;;;;;5095634;28;20651;-69
2021/03/01 12:55:27;;;;;;;5.20;2.50;;;21.20;99.90;;;;;;5095940;28;20186;-69
2021/03/01 12:57:53;;;;;;;8.60;3.60;;;21.30;99.90;;;;;;5095186;28;20175;-69